Time;durP1;ratioP1;P1;durP2;ratioP2;P2;SDS_P1;SDS_P2;PMS_P1;PMS_P2;Temp;Humidity;BMP_temperature;BMP_pressure;BME280_temperature;BME280_humidity;BME280_pressure;Samples;Min_cycle;Max_cycle;Signal;HPM_P1;HPM_P2
2023/06/11 00:01:52;;;;;;;9.50;7.82;;;21.10;99.90;;;;;;5041020;28;20044;-53
2023/06/11 00:04:25;;;;;;;11.40;8.13;;;21.00;99.90;;;;;;5042830;28;20025;-57
2023/06/11 00:06:56;;;;;;;13.82;8.90;;;21.00;99.90;;;;;;5043239;28;20033;-59
2023/06/11 00:09:24;;;;;;;10.98;8.43;;;20.90;99.90;;;;;;5044929;28;20048;-59
2023/06/11 00:11:52;;;;;;;12.02;8.52;;;20.90;99.90;;;;;;5044854;28;20103;-56
2023/06/11 00:14:18;;;;;;;12.55;8.95;;;20.80;99.90;;;;;;5039116;28;20022;-58
2023/06/11 00:16:43;;;;;;;14.35;9.68;;;20.80;99.90;;;;;;5041676;28;20104;-59
2023/06/11 00:19:09;;;;;;;11.82;8.10;;;20.70;99.90;;;;;;5044243;28;20021;-56
2023/06/11 00:21:36;;;;;;;10.20;8.30;;;20.70;99.90;;;;;;5045568;28;20144;-58
2023/06/11 00:24:02;;;;;;;12.02;9.20;;;20.60;99.90;;;;;;5046913;28;20430;-59
2023/06/11 00:26:28;;;;;;;12.10;7.28;;;20.50;99.90;;;;;;5045574;28;20067;-60
2023/06/11 00:28:53;;;;;;;13.68;8.25;;;20.40;99.90;;;;;;5042474;28;20117;-57
2023/06/11 00:31:19;;;;;;;11.13;9.05;;;20.30;99.90;;;;;;5042353;28;20492;-58
2023/06/11 00:33:44;;;;;;;10.88;8.60;;;20.20;99.90;;;;;;5049571;28;20033;-59
2023/06/11 00:36:11;;;;;;;13.35;8.82;;;20.10;99.90;;;;;;5045251;28;20035;-58
2023/06/11 00:38:36;;;;;;;15.77;9.63;;;20.00;99.90;;;;;;5047242;28;20067;-57
2023/06/11 00:41:02;;;;;;;13.20;9.15;;;20.00;99.90;;;;;;5050575;28;20052;-58
2023/06/11 00:43:28;;;;;;;12.15;9.38;;;19.90;99.90;;;;;;5044432;28;20556;-58
2023/06/11 00:45:54;;;;;;;13.63;9.63;;;19.80;99.90;;;;;;5047139;28;20025;-58
2023/06/11 00:48:20;;;;;;;11.68;9.10;;;19.70;99.90;;;;;;5045051;28;20030;-57
2023/06/11 00:50:50;;;;;;;15.82;11.13;;;19.60;99.90;;;;;;5051512;28;20693;-59
2023/06/11 00:53:18;;;;;;;17.55;10.98;;;19.50;99.90;;;;;;5047072;28;20069;-57
2023/06/11 00:55:45;;;;;;;18.10;9.98;;;19.40;99.90;;;;;;5046011;28;20391;-57
2023/06/11 00:58:15;;;;;;;12.38;10.43;;;19.30;99.90;;;;;;5046350;28;20040;-58
2023/06/11 01:00:46;;;;;;;15.38;10.60;;;19.20;99.90;;;;;;5052033;28;20028;-58
2023/06/11 01:03:17;;;;;;;13.43;9.73;;;19.20;99.90;;;;;;5044449;28;20029;-57
2023/06/11 01:05:50;;;;;;;14.85;10.02;;;19.10;99.90;;;;;;5047565;28;20038;-59
2023/06/11 01:08:19;;;;;;;15.65;9.63;;;19.10;99.90;;;;;;5044681;28;20039;-57
2023/06/11 01:10:45;;;;;;;13.40;10.20;;;19.00;99.90;;;;;;5047660;28;20182;-58
2023/06/11 01:13:11;;;;;;;13.57;10.05;;;18.90;99.90;;;;;;5043238;28;20032;-59
2023/06/11 01:15:36;;;;;;;13.48;9.68;;;18.90;99.90;;;;;;5046908;28;20491;-60
2023/06/11 01:18:23;;;;;;;16.52;9.48;;;18.90;99.90;;;;;;5047260;28;20097;-59
2023/06/11 01:21:13;;;;;;;12.93;9.43;;;18.90;99.90;;;;;;5044226;28;20363;-58
2023/06/11 01:23:41;;;;;;;13.70;10.13;;;18.90;99.90;;;;;;5055109;28;20035;-58
2023/06/11 01:26:39;;;;;;;20.05;9.85;;;18.90;99.90;;;;;;5041740;28;20021;-59
2023/06/11 01:29:08;;;;;;;12.98;9.32;;;18.90;99.90;;;;;;5042669;28;20066;-59
2023/06/11 01:31:39;;;;;;;14.18;10.27;;;18.80;99.90;;;;;;5041653;28;20227;-59
2023/06/11 01:34:04;;;;;;;17.77;10.15;;;18.70;99.90;;;;;;5045442;28;20445;-55
2023/06/11 01:36:34;;;;;;;14.70;10.65;;;18.60;99.90;;;;;;5050077;28;20116;-58
2023/06/11 01:39:01;;;;;;;17.33;10.65;;;18.40;99.90;;;;;;5048854;28;20029;-58
2023/06/11 01:41:27;;;;;;;14.15;10.20;;;18.40;99.90;;;;;;5047232;28;20037;-56
2023/06/11 01:43:53;;;;;;;14.13;10.43;;;18.40;99.90;;;;;;5048129;28;20048;-59
2023/06/11 01:46:19;;;;;;;24.77;11.35;;;18.40;99.90;;;;;;5044704;28;20545;-58
2023/06/11 01:48:44;;;;;;;18.58;10.57;;;18.30;99.90;;;;;;5048543;28;20025;-60
2023/06/11 01:51:13;;;;;;;13.65;9.95;;;18.30;99.90;;;;;;5050810;28;20044;-59
2023/06/11 01:53:42;;;;;;;13.00;8.95;;;18.40;99.90;;;;;;5054945;28;20404;-59
2023/06/11 01:56:08;;;;;;;13.65;9.50;;;18.30;99.90;;;;;;5042012;28;20518;-58
2023/06/11 01:58:34;;;;;;;15.82;9.70;;;18.30;99.90;;;;;;5045769;28;20041;-58
2023/06/11 02:01:00;;;;;;;11.82;9.20;;;18.30;99.90;;;;;;5048163;28;20087;-55
2023/06/11 02:03:25;;;;;;;12.40;9.70;;;18.30;99.90;;;;;;5049825;28;20033;-55
2023/06/11 02:05:51;;;;;;;13.70;9.40;;;18.30;99.90;;;;;;5041386;28;20071;-55
2023/06/11 02:08:17;;;;;;;15.18;10.32;;;18.10;99.90;;;;;;5046258;28;20075;-57
2023/06/11 02:10:43;;;;;;;11.57;9.40;;;18.10;99.90;;;;;;5053367;28;20025;-59
2023/06/11 02:13:09;;;;;;;14.13;9.90;;;18.00;99.90;;;;;;5039860;28;20037;-57
2023/06/11 02:15:35;;;;;;;14.63;9.68;;;18.10;99.90;;;;;;5047585;28;20032;-59
2023/06/11 02:18:01;;;;;;;18.70;9.90;;;18.00;99.90;;;;;;5046717;28;20108;-59
2023/06/11 02:20:26;;;;;;;16.08;9.80;;;18.00;99.90;;;;;;5045734;28;20471;-59
2023/06/11 02:22:52;;;;;;;14.82;9.85;;;18.00;99.90;;;;;;5048957;28;20458;-59
2023/06/11 02:25:18;;;;;;;12.23;10.10;;;18.00;99.90;;;;;;5044323;28;20079;-59
2023/06/11 02:27:43;;;;;;;17.00;9.13;;;18.00;99.90;;;;;;5048439;28;20029;-59
2023/06/11 02:30:09;;;;;;;13.30;9.73;;;18.00;99.90;;;;;;5048156;28;20032;-55
2023/06/11 02:32:35;;;;;;;13.10;9.13;;;18.00;99.90;;;;;;5045238;28;20098;-59
2023/06/11 02:35:00;;;;;;;18.15;9.45;;;18.00;99.90;;;;;;5048075;28;20021;-59
2023/06/11 02:37:26;;;;;;;12.10;9.68;;;18.00;99.90;;;;;;5046035;28;20044;-57
2023/06/11 02:39:52;;;;;;;14.40;9.57;;;18.00;99.90;;;;;;5045189;28;20032;-59
2023/06/11 02:42:17;;;;;;;13.02;9.60;;;18.00;99.90;;;;;;5042889;28;20033;-58
2023/06/11 02:44:43;;;;;;;12.70;9.98;;;18.00;99.90;;;;;;5045746;28;20025;-54
2023/06/11 02:47:08;;;;;;;14.93;9.65;;;18.00;99.90;;;;;;5045090;28;20032;-58
2023/06/11 02:49:34;;;;;;;12.13;9.07;;;18.00;99.90;;;;;;5046606;28;20044;-57
2023/06/11 02:52:00;;;;;;;13.40;9.60;;;17.90;99.90;;;;;;5043335;28;20483;-59
2023/06/11 02:54:25;;;;;;;15.20;10.43;;;17.90;99.90;;;;;;5043981;28;20048;-58
2023/06/11 02:56:51;;;;;;;12.23;9.25;;;17.90;99.90;;;;;;5041833;28;20021;-59
2023/06/11 02:59:16;;;;;;;15.18;10.07;;;17.80;99.90;;;;;;5046295;28;20442;-58
2023/06/11 03:01:42;;;;;;;12.27;9.13;;;17.80;99.90;;;;;;5044244;28;20148;-58
2023/06/11 03:04:08;;;;;;;14.52;10.30;;;17.80;99.90;;;;;;5045562;28;20104;-57
2023/06/11 03:06:33;;;;;;;13.52;9.93;;;17.80;99.90;;;;;;5046644;28;20029;-58
2023/06/11 03:08:59;;;;;;;15.80;10.57;;;17.80;99.90;;;;;;5048556;28;20032;-56
2023/06/11 03:11:25;;;;;;;13.68;9.32;;;17.70;99.90;;;;;;5041759;28;20021;-57
2023/06/11 03:13:51;;;;;;;15.88;9.75;;;17.70;99.90;;;;;;5047337;28;20024;-56
2023/06/11 03:16:17;;;;;;;13.48;9.45;;;17.70;99.90;;;;;;5037474;28;20076;-59
2023/06/11 03:18:43;;;;;;;14.93;9.80;;;17.70;99.90;;;;;;5043656;28;20029;-59
2023/06/11 03:21:10;;;;;;;11.68;9.57;;;17.70;99.90;;;;;;5045066;28;20032;-54
2023/06/11 03:23:35;;;;;;;15.88;9.90;;;17.70;99.90;;;;;;5047113;28;20025;-55
2023/06/11 03:26:01;;;;;;;15.00;10.52;;;17.70;99.90;;;;;;5039746;28;20426;-54
2023/06/11 03:28:26;;;;;;;12.13;9.52;;;17.70;99.90;;;;;;5043422;28;20017;-59
2023/06/11 03:30:52;;;;;;;14.20;9.80;;;17.70;99.90;;;;;;5048807;28;20502;-58
2023/06/11 03:33:17;;;;;;;14.52;9.88;;;17.60;99.90;;;;;;5047158;28;20728;-59
2023/06/11 03:35:43;;;;;;;13.88;10.05;;;17.60;99.90;;;;;;5041034;28;20036;-53
2023/06/11 03:38:08;;;;;;;13.88;9.63;;;17.60;99.90;;;;;;5044226;28;20029;-59
2023/06/11 03:40:34;;;;;;;13.90;9.80;;;17.60;99.90;;;;;;5039561;28;20379;-59
2023/06/11 03:43:00;;;;;;;14.07;10.07;;;17.60;99.90;;;;;;5045434;28;20016;-58
2023/06/11 03:45:25;;;;;;;12.52;9.25;;;17.60;99.90;;;;;;5048567;28;20037;-59
2023/06/11 03:47:55;;;;;;;15.25;9.63;;;17.60;99.90;;;;;;5044056;28;20447;-58
2023/06/11 03:50:21;;;;;;;10.52;8.65;;;17.60;99.90;;;;;;5043641;28;20028;-59
2023/06/11 03:52:47;;;;;;;13.80;9.43;;;17.60;99.90;;;;;;5042671;28;20495;-59
2023/06/11 03:55:13;;;;;;;13.85;9.20;;;17.60;99.90;;;;;;5046214;28;20047;-58
2023/06/11 03:57:39;;;;;;;10.77;9.55;;;17.60;99.90;;;;;;5045362;28;20499;-58
2023/06/11 04:00:06;;;;;;;11.95;9.55;;;17.60;99.90;;;;;;5044723;28;20052;-59
2023/06/11 04:02:31;;;;;;;14.50;10.52;;;17.70;99.90;;;;;;5038553;28;20040;-59
2023/06/11 04:04:57;;;;;;;13.95;10.23;;;17.70;99.90;;;;;;5047393;28;20096;-59
2023/06/11 04:07:22;;;;;;;15.10;9.90;;;17.70;99.90;;;;;;5041611;28;20026;-59
2023/06/11 04:09:48;;;;;;;13.88;9.75;;;17.70;99.90;;;;;;5047816;28;20051;-54
2023/06/11 04:12:14;;;;;;;17.50;9.90;;;17.70;99.90;;;;;;5045760;28;20053;-58
2023/06/11 04:14:39;;;;;;;15.05;9.75;;;17.70;99.90;;;;;;5050814;28;20032;-58
2023/06/11 04:17:05;;;;;;;13.45;9.88;;;17.70;99.90;;;;;;5044327;28;20018;-58
2023/06/11 04:19:30;;;;;;;13.00;9.70;;;17.80;99.90;;;;;;5043980;28;20063;-59
2023/06/11 04:21:56;;;;;;;15.40;9.18;;;17.80;99.90;;;;;;5042505;28;20029;-56
2023/06/11 04:24:21;;;;;;;12.80;8.98;;;17.80;99.90;;;;;;5044659;28;20024;-59
2023/06/11 04:26:47;;;;;;;11.07;9.07;;;17.80;99.90;;;;;;5040091;28;20032;-59
2023/06/11 04:29:15;;;;;;;16.52;10.45;;;17.80;99.90;;;;;;5046407;28;20044;-58
2023/06/11 04:31:41;;;;;;;11.73;8.68;;;17.90;99.90;;;;;;5038227;28;20022;-58
2023/06/11 04:34:08;;;;;;;12.90;10.00;;;17.90;99.90;;;;;;5049219;28;20032;-58
2023/06/11 04:36:33;;;;;;;13.77;9.98;;;18.00;99.90;;;;;;5040267;28;20032;-58
2023/06/11 04:39:03;;;;;;;14.93;10.00;;;18.00;99.90;;;;;;5045974;28;20542;-57
2023/06/11 04:41:29;;;;;;;15.65;9.07;;;18.00;99.90;;;;;;5041606;28;20586;-56
2023/06/11 04:43:55;;;;;;;12.57;10.23;;;18.00;99.90;;;;;;5047665;28;20115;-58
2023/06/11 04:46:21;;;;;;;13.13;9.43;;;18.20;99.90;;;;;;5045320;28;20021;-57
2023/06/11 04:48:50;;;;;;;14.95;9.45;;;18.20;99.90;;;;;;5044174;28;20399;-58
2023/06/11 04:51:16;;;;;;;13.93;9.15;;;18.30;99.90;;;;;;5045049;28;20053;-58
2023/06/11 04:53:43;;;;;;;12.40;9.65;;;18.30;99.90;;;;;;5045429;28;20021;-56
2023/06/11 04:56:08;;;;;;;12.80;8.88;;;18.40;99.90;;;;;;5042121;28;20499;-57
2023/06/11 04:58:34;;;;;;;12.40;9.00;;;18.40;99.90;;;;;;5046066;28;20100;-59
2023/06/11 05:01:00;;;;;;;13.10;8.65;;;18.50;99.90;;;;;;5040571;28;20458;-57
2023/06/11 05:03:28;;;;;;;12.45;8.98;;;18.60;99.90;;;;;;5044586;28;20052;-59
2023/06/11 05:05:54;;;;;;;14.63;8.50;;;18.70;99.90;;;;;;5042754;28;20056;-58
2023/06/11 05:08:25;;;;;;;13.18;8.25;;;18.80;99.90;;;;;;5046374;28;20030;-57
2023/06/11 05:10:51;;;;;;;17.63;8.82;;;18.90;99.90;;;;;;5043486;28;20035;-57
2023/06/11 05:13:25;;;;;;;11.23;8.48;;;18.90;99.90;;;;;;5041364;28;20506;-58
2023/06/11 05:15:51;;;;;;;10.35;8.27;;;19.00;99.90;;;;;;5042452;28;20123;-58
2023/06/11 05:18:17;;;;;;;11.25;8.25;;;19.00;99.90;;;;;;5042237;28;20037;-57
2023/06/11 05:20:42;;;;;;;13.75;7.47;;;19.00;99.90;;;;;;5053053;28;20026;-59
2023/06/11 05:23:08;;;;;;;9.75;8.02;;;19.10;99.90;;;;;;5047109;28;20672;-58
2023/06/11 05:25:33;;;;;;;13.75;8.30;;;19.10;99.90;;;;;;5046710;28;20032;-57
2023/06/11 05:28:00;;;;;;;11.80;7.97;;;19.20;99.90;;;;;;5046017;28;20021;-58
2023/06/11 05:30:29;;;;;;;12.50;8.38;;;19.20;99.90;;;;;;5041325;28;20079;-58
2023/06/11 05:32:56;;;;;;;11.80;8.70;;;19.20;99.90;;;;;;5047550;28;20028;-57
2023/06/11 05:35:22;;;;;;;13.70;8.57;;;19.30;99.90;;;;;;5042835;28;20072;-57
2023/06/11 05:37:48;;;;;;;11.95;8.13;;;19.30;99.90;;;;;;5043611;28;20136;-55
2023/06/11 05:40:15;;;;;;;12.50;8.23;;;19.40;99.90;;;;;;5043121;28;20470;-55
2023/06/11 05:42:40;;;;;;;14.20;7.57;;;19.40;99.90;;;;;;5041158;28;20401;-58
2023/06/11 05:45:06;;;;;;;11.98;8.45;;;19.50;99.90;;;;;;5043310;28;20017;-59
2023/06/11 05:47:33;;;;;;;10.20;8.13;;;19.50;99.90;;;;;;5039286;28;20064;-58
2023/06/11 05:49:59;;;;;;;10.63;8.23;;;19.60;99.90;;;;;;5046216;28;20051;-54
2023/06/11 05:52:25;;;;;;;15.20;8.82;;;19.70;99.90;;;;;;5046021;28;20127;-58
2023/06/11 05:54:50;;;;;;;16.05;11.55;;;19.80;99.90;;;;;;5047598;28;20033;-57
2023/06/11 05:57:20;;;;;;;12.32;8.20;;;19.80;99.90;;;;;;5042772;28;20032;-58
2023/06/11 05:59:46;;;;;;;11.88;8.30;;;19.90;99.90;;;;;;5047097;28;20057;-58
2023/06/11 06:02:12;;;;;;;9.77;7.32;;;19.90;99.90;;;;;;5041457;28;20483;-58
2023/06/11 06:04:37;;;;;;;10.88;8.43;;;20.00;99.90;;;;;;5044271;28;20029;-58
2023/06/11 06:07:03;;;;;;;10.23;8.00;;;20.10;99.90;;;;;;5043369;28;20100;-59
2023/06/11 06:09:29;;;;;;;11.07;8.70;;;20.10;99.90;;;;;;5048089;28;20017;-54
2023/06/11 06:11:54;;;;;;;16.00;8.45;;;20.20;99.90;;;;;;5042883;28;20450;-56
2023/06/11 06:14:20;;;;;;;11.55;8.77;;;20.20;99.90;;;;;;5049053;28;20424;-55
2023/06/11 06:16:45;;;;;;;11.52;8.68;;;20.30;99.90;;;;;;5058729;28;20032;-56
2023/06/11 06:19:11;;;;;;;13.48;8.80;;;20.40;99.90;;;;;;5050374;28;20071;-53
2023/06/11 06:21:37;;;;;;;11.68;8.45;;;20.40;99.90;;;;;;5047565;28;20086;-56
2023/06/11 06:24:02;;;;;;;11.13;8.50;;;20.50;99.90;;;;;;5048116;28;20025;-59
2023/06/11 06:26:28;;;;;;;11.20;8.30;;;20.50;99.90;;;;;;5046004;28;20066;-58
2023/06/11 06:28:54;;;;;;;10.57;7.70;;;20.70;99.90;;;;;;5047995;28;20021;-58
2023/06/11 06:31:20;;;;;;;11.27;8.25;;;20.70;99.90;;;;;;5042560;28;20549;-58
2023/06/11 06:33:46;;;;;;;9.52;7.93;;;20.90;99.90;;;;;;5043767;28;20021;-57
2023/06/11 06:36:12;;;;;;;11.68;8.32;;;20.90;99.90;;;;;;5051116;28;20060;-53
2023/06/11 06:38:38;;;;;;;13.50;8.80;;;21.00;99.90;;;;;;5043650;28;20534;-59
2023/06/11 06:41:03;;;;;;;11.95;8.02;;;21.00;99.90;;;;;;5043369;28;20111;-59
2023/06/11 06:43:29;;;;;;;13.60;8.43;;;21.10;99.90;;;;;;5041769;28;20023;-59
2023/06/11 06:45:55;;;;;;;10.02;8.10;;;21.10;99.90;;;;;;5041894;28;20031;-58
2023/06/11 06:48:22;;;;;;;11.32;8.15;;;21.20;99.90;;;;;;5039446;28;20450;-58
2023/06/11 06:50:47;;;;;;;14.43;7.75;;;21.20;99.90;;;;;;5041306;28;20018;-59
2023/06/11 06:53:14;;;;;;;10.82;8.00;;;21.30;99.90;;;;;;5040574;28;20017;-59
2023/06/11 06:55:40;;;;;;;11.65;8.13;;;21.40;99.90;;;;;;5045525;28;20040;-59
2023/06/11 06:58:06;;;;;;;8.88;7.35;;;21.40;99.90;;;;;;5040552;28;20021;-58
2023/06/11 07:00:31;;;;;;;9.90;7.68;;;21.50;99.90;;;;;;5045603;28;20029;-54
2023/06/11 07:02:57;;;;;;;11.50;8.07;;;21.50;99.90;;;;;;5041419;28;20458;-59
2023/06/11 07:05:22;;;;;;;12.32;7.93;;;21.70;99.90;;;;;;5044231;28;20028;-59
2023/06/11 07:07:48;;;;;;;14.13;7.70;;;21.70;99.90;;;;;;5039386;28;20501;-58
2023/06/11 07:10:14;;;;;;;13.15;7.68;;;21.80;99.90;;;;;;5041243;28;20563;-58
2023/06/11 07:12:39;;;;;;;9.95;7.20;;;22.00;99.90;;;;;;5049702;28;20040;-58
2023/06/11 07:15:05;;;;;;;15.63;7.90;;;22.00;99.90;;;;;;5044989;28;20798;-56
2023/06/11 07:17:31;;;;;;;11.30;7.15;;;22.10;99.90;;;;;;5046374;28;20754;-59
2023/06/11 07:19:56;;;;;;;11.27;7.50;;;22.10;99.90;;;;;;5046497;28;20025;-56
2023/06/11 07:22:22;;;;;;;9.43;7.57;;;22.20;99.90;;;;;;5039083;28;20021;-57
2023/06/11 07:24:48;;;;;;;10.70;7.45;;;22.30;99.90;;;;;;5044424;28;20021;-59
2023/06/11 07:27:16;;;;;;;10.38;7.25;;;22.50;99.90;;;;;;5036477;28;20014;-60
2023/06/11 07:29:42;;;;;;;9.77;7.60;;;22.50;99.90;;;;;;5044521;28;20122;-56
2023/06/11 07:32:08;;;;;;;9.07;6.88;;;22.50;99.90;;;;;;5042290;28;20495;-59
2023/06/11 07:34:33;;;;;;;12.40;7.85;;;22.50;99.90;;;;;;5043533;28;20017;-59
2023/06/11 07:36:59;;;;;;;10.30;7.40;;;22.60;99.90;;;;;;5038060;28;20016;-57
2023/06/11 07:39:25;;;;;;;9.57;6.88;;;22.60;99.90;;;;;;5045518;28;20048;-57
2023/06/11 07:41:50;;;;;;;11.15;7.55;;;22.70;99.90;;;;;;5035838;28;20018;-54
2023/06/11 07:44:16;;;;;;;9.82;7.13;;;22.80;99.90;;;;;;5042947;28;20039;-55
2023/06/11 07:46:44;;;;;;;11.48;7.45;;;22.90;99.90;;;;;;5035875;28;20045;-58
2023/06/11 07:49:10;;;;;;;10.25;7.50;;;23.00;99.90;;;;;;5046537;28;20037;-56
2023/06/11 07:51:36;;;;;;;12.40;7.25;;;23.00;99.90;;;;;;5039347;28;20506;-58
2023/06/11 07:54:02;;;;;;;10.20;6.90;;;23.00;99.90;;;;;;5043281;28;20124;-54
2023/06/11 07:56:28;;;;;;;9.57;7.22;;;23.10;99.90;;;;;;5039507;28;20066;-54
2023/06/11 07:58:53;;;;;;;8.45;6.90;;;23.30;99.90;;;;;;5044558;28;20029;-54
2023/06/11 08:01:19;;;;;;;9.60;7.38;;;23.40;99.90;;;;;;5040772;28;20025;-55
2023/06/11 08:03:45;;;;;;;10.30;7.20;;;23.40;99.90;;;;;;5040337;28;20029;-57
2023/06/11 08:06:10;;;;;;;8.45;7.03;;;23.50;99.90;;;;;;5036822;28;20049;-55
2023/06/11 08:08:36;;;;;;;9.15;7.00;;;23.70;99.90;;;;;;5039669;28;20024;-55
2023/06/11 08:11:01;;;;;;;12.82;7.07;;;23.70;99.90;;;;;;5042108;28;20025;-55
2023/06/11 08:13:27;;;;;;;8.18;6.40;;;23.80;99.90;;;;;;5041533;28;20423;-57
2023/06/11 08:15:53;;;;;;;8.23;6.28;;;23.90;99.90;;;;;;5040630;28;20038;-54
2023/06/11 08:18:19;;;;;;;11.45;6.93;;;23.90;99.90;;;;;;5045608;28;20219;-58
2023/06/11 08:20:45;;;;;;;8.27;7.13;;;24.00;99.90;;;;;;5041817;28;20045;-54
2023/06/11 08:23:12;;;;;;;8.60;6.78;;;24.10;99.90;;;;;;5039455;28;20028;-56
2023/06/11 08:25:39;;;;;;;10.13;7.35;;;24.20;99.90;;;;;;5036789;28;20143;-53
2023/06/11 08:28:05;;;;;;;7.43;6.50;;;24.30;99.90;;;;;;5042446;28;20017;-55
2023/06/11 08:30:31;;;;;;;9.70;6.75;;;24.40;99.90;;;;;;5042995;28;20021;-58
2023/06/11 08:32:56;;;;;;;9.70;6.75;;;24.40;99.90;;;;;;5038134;28;20080;-56
2023/06/11 08:35:22;;;;;;;9.93;6.30;;;24.40;99.90;;;;;;5041868;28;20024;-58
2023/06/11 08:37:47;;;;;;;11.65;6.50;;;24.50;99.90;;;;;;5037652;28;20554;-56
2023/06/11 08:40:14;;;;;;;9.27;7.32;;;24.60;99.90;;;;;;5047186;28;20054;-58
2023/06/11 08:42:39;;;;;;;8.95;6.45;;;24.70;99.90;;;;;;5034901;28;20060;-57
2023/06/11 08:45:06;;;;;;;8.63;6.38;;;24.80;99.90;;;;;;5037257;28;20025;-57
2023/06/11 08:47:33;;;;;;;9.02;6.22;;;24.90;99.90;;;;;;5038077;28;20017;-54
2023/06/11 08:49:59;;;;;;;7.93;5.95;;;25.00;99.90;;;;;;5038052;28;20418;-57
2023/06/11 08:52:29;;;;;;;9.95;6.20;;;25.10;99.90;;;;;;5044524;28;20483;-58
2023/06/11 08:54:55;;;;;;;7.68;5.82;;;25.20;99.90;;;;;;5044817;28;21970;-56
2023/06/11 08:57:21;;;;;;;8.90;5.95;;;25.20;99.90;;;;;;5037617;28;20092;-58
2023/06/11 08:59:47;;;;;;;9.45;6.03;;;25.30;99.90;;;;;;5046284;28;20032;-55
2023/06/11 09:02:12;;;;;;;8.80;6.88;;;25.50;99.90;;;;;;5041786;28;20025;-57
2023/06/11 09:04:43;;;;;;;10.95;5.93;;;25.60;99.90;;;;;;5042715;28;20044;-57
2023/06/11 09:07:09;;;;;;;6.60;5.88;;;25.60;99.90;;;;;;5040178;28;20017;-57
2023/06/11 09:09:35;;;;;;;7.28;6.32;;;25.70;99.90;;;;;;5046146;28;20341;-56
2023/06/11 09:12:06;;;;;;;9.65;6.88;;;25.70;99.90;;;;;;5044227;28;20036;-55
2023/06/11 09:14:31;;;;;;;8.32;5.70;;;25.80;99.90;;;;;;5044270;28;20441;-57
2023/06/11 09:16:57;;;;;;;9.48;5.80;;;25.90;99.90;;;;;;5046801;28;20060;-58
2023/06/11 09:19:22;;;;;;;9.98;6.22;;;26.10;99.90;;;;;;5047569;28;20115;-55
2023/06/11 09:21:50;;;;;;;6.72;5.72;;;26.20;99.90;;;;;;5047483;28;20029;-55
2023/06/11 09:24:17;;;;;;;6.95;5.18;;;26.30;99.90;;;;;;5048187;28;20036;-58
2023/06/11 09:26:50;;;;;;;9.73;5.63;;;26.40;99.90;;;;;;5041100;28;20101;-55
2023/06/11 09:29:16;;;;;;;7.82;5.40;;;26.50;99.90;;;;;;5044157;28;20103;-57
2023/06/11 09:31:41;;;;;;;6.47;5.40;;;26.70;99.90;;;;;;5044670;28;20156;-59
2023/06/11 09:34:09;;;;;;;10.18;5.20;;;26.80;99.90;;;;;;5037418;28;20025;-53
2023/06/11 09:36:35;;;;;;;6.45;5.15;;;27.00;99.90;;;;;;5040018;28;20028;-58
2023/06/11 09:39:03;;;;;;;11.13;5.20;;;27.10;99.90;;;;;;5038637;28;20464;-57
2023/06/11 09:41:29;;;;;;;5.72;4.53;;;27.20;99.90;;;;;;5043867;28;20166;-57
2023/06/11 09:43:56;;;;;;;6.68;4.40;;;27.30;99.90;;;;;;5038073;28;20112;-57
2023/06/11 09:46:23;;;;;;;5.60;4.28;;;27.40;99.90;;;;;;5034807;28;20032;-55
2023/06/11 09:48:48;;;;;;;6.90;4.93;;;27.50;99.90;;;;;;5038679;28;20399;-58
2023/06/11 09:51:15;;;;;;;6.35;4.25;;;27.60;99.90;;;;;;5037765;28;20021;-58
2023/06/11 09:53:43;;;;;;;5.72;4.28;;;27.70;99.90;;;;;;5041000;28;20036;-56
2023/06/11 09:56:09;;;;;;;7.95;4.90;;;27.80;99.10;;;;;;5043218;28;20018;-55
2023/06/11 09:58:35;;;;;;;7.72;5.88;;;28.00;99.40;;;;;;5040738;28;20032;-56
2023/06/11 10:01:01;;;;;;;6.35;4.65;;;28.10;99.00;;;;;;5040270;28;20029;-59
2023/06/11 10:03:28;;;;;;;11.88;5.20;;;28.30;99.50;;;;;;5043161;28;20028;-57
2023/06/11 10:05:53;;;;;;;5.50;4.85;;;28.40;98.00;;;;;;5037013;28;20028;-56
2023/06/11 10:08:22;;;;;;;8.75;4.88;;;28.20;96.20;;;;;;5039753;28;20030;-56
2023/06/11 10:10:53;;;;;;;5.88;5.28;;;28.30;95.90;;;;;;5038028;28;20097;-54
2023/06/11 10:13:33;;;;;;;6.28;4.90;;;28.40;97.70;;;;;;5042995;28;20491;-56
2023/06/11 10:16:03;;;;;;;6.63;5.07;;;28.50;95.80;;;;;;5042013;28;20053;-58
2023/06/11 10:18:30;;;;;;;5.88;4.57;;;28.70;97.10;;;;;;5043245;28;20036;-56
2023/06/11 10:21:00;;;;;;;13.48;5.28;;;28.80;91.90;;;;;;5044029;28;20529;-52
2023/06/11 10:23:37;;;;;;;5.70;4.80;;;28.90;93.60;;;;;;5040081;28;20043;-58
2023/06/11 10:26:03;;;;;;;9.25;6.53;;;28.90;90.20;;;;;;5040841;28;20025;-57
2023/06/11 10:29:02;;;;;;;10.68;5.25;;;29.00;92.30;;;;;;5044048;28;20027;-58
2023/06/11 10:31:30;;;;;;;7.68;5.55;;;29.00;90.30;;;;;;5041518;28;20029;-54
2023/06/11 10:34:05;;;;;;;8.23;5.32;;;29.20;93.00;;;;;;5041875;28;20040;-58
2023/06/11 10:36:40;;;;;;;7.95;5.07;;;29.30;91.00;;;;;;5035738;28;20026;-59
2023/06/11 10:39:23;;;;;;;7.18;4.75;;;29.40;87.80;;;;;;5039913;28;20069;-54
2023/06/11 10:41:59;;;;;;;6.82;5.45;;;29.50;91.40;;;;;;5045496;28;20037;-57
2023/06/11 10:44:25;;;;;;;7.13;5.05;;;29.90;87.10;;;;;;5047945;28;20059;-56
2023/06/11 10:46:53;;;;;;;16.20;4.82;;;29.90;90.60;;;;;;5043887;28;20490;-58
2023/06/11 10:49:23;;;;;;;6.72;4.85;;;29.80;88.60;;;;;;5033698;28;20053;-57
2023/06/11 10:51:50;;;;;;;5.90;5.07;;;30.00;90.40;;;;;;5037944;28;20033;-57
2023/06/11 10:54:26;;;;;;;9.27;4.68;;;30.00;91.40;;;;;;5039886;28;20020;-58
2023/06/11 10:56:52;;;;;;;7.47;5.10;;;30.10;88.60;;;;;;5040496;28;20064;-58
2023/06/11 10:59:18;;;;;;;9.38;5.20;;;30.30;87.30;;;;;;5046846;28;20067;-58
2023/06/11 11:01:43;;;;;;;7.40;5.22;;;30.30;90.10;;;;;;5041378;28;20078;-59
2023/06/11 11:04:09;;;;;;;9.10;5.43;;;30.20;90.00;;;;;;5039789;28;20021;-58
2023/06/11 11:06:38;;;;;;;11.63;6.45;;;30.40;86.40;;;;;;5040766;28;20021;-59
2023/06/11 11:09:04;;;;;;;6.82;5.75;;;30.30;85.50;;;;;;5047047;28;20032;-58
2023/06/11 11:11:29;;;;;;;7.20;5.55;;;30.40;86.00;;;;;;5039609;28;20025;-59
2023/06/11 11:13:58;;;;;;;7.93;5.50;;;30.50;83.50;;;;;;5043091;28;20090;-59
2023/06/11 11:16:25;;;;;;;8.18;5.38;;;30.70;86.50;;;;;;5044456;28;20527;-55
2023/06/11 11:18:51;;;;;;;7.53;5.30;;;30.70;81.90;;;;;;5040280;28;20028;-57
2023/06/11 11:21:18;;;;;;;5.93;5.22;;;30.70;84.00;;;;;;5039582;28;20025;-57
2023/06/11 11:23:47;;;;;;;10.35;5.13;;;30.80;86.60;;;;;;5044729;28;20017;-59
2023/06/11 11:26:13;;;;;;;8.75;4.97;;;30.70;82.50;;;;;;5046791;28;20495;-55
2023/06/11 11:28:38;;;;;;;9.48;5.13;;;30.70;80.50;;;;;;5040246;28;20037;-59
2023/06/11 11:31:05;;;;;;;7.57;5.28;;;30.90;78.00;;;;;;5046250;28;20032;-59
2023/06/11 11:33:34;;;;;;;10.63;5.35;;;30.90;81.20;;;;;;5043063;28;20025;-58
2023/06/11 11:36:03;;;;;;;10.02;5.40;;;30.90;82.80;;;;;;5044016;28;20107;-59
2023/06/11 11:38:36;;;;;;;10.30;5.15;;;31.00;80.10;;;;;;5039539;28;20040;-59
2023/06/11 11:41:02;;;;;;;8.35;5.55;;;31.20;81.50;;;;;;5042101;28;20037;-59
2023/06/11 11:43:41;;;;;;;5.57;4.60;;;31.30;80.60;;;;;;5040679;28;20102;-58
2023/06/11 11:46:21;;;;;;;7.95;5.50;;;31.30;80.20;;;;;;5039351;28;20106;-59
2023/06/11 11:48:46;;;;;;;6.85;5.20;;;31.20;79.30;;;;;;5044669;28;20074;-57
2023/06/11 11:51:15;;;;;;;10.23;5.28;;;31.30;78.10;;;;;;5038675;28;20033;-57
2023/06/11 11:53:41;;;;;;;8.77;4.85;;;31.30;75.50;;;;;;5039982;28;20073;-58
2023/06/11 11:56:07;;;;;;;9.50;5.68;;;31.10;79.60;;;;;;5038439;28;20041;-59
2023/06/11 11:58:41;;;;;;;6.78;5.32;;;31.30;79.80;;;;;;5038334;28;20025;-55
2023/06/11 12:01:09;;;;;;;7.72;4.88;;;31.60;76.60;;;;;;5038465;28;20131;-55
2023/06/11 12:03:36;;;;;;;6.43;5.07;;;31.50;73.70;;;;;;5039776;28;20102;-56
2023/06/11 12:06:07;;;;;;;6.53;5.18;;;31.90;71.70;;;;;;5035523;28;20112;-58
2023/06/11 12:08:34;;;;;;;8.95;5.38;;;31.60;73.10;;;;;;5035583;28;20100;-59
2023/06/11 12:11:01;;;;;;;9.57;5.22;;;31.20;74.80;;;;;;5038534;28;20029;-57
2023/06/11 12:13:27;;;;;;;6.85;5.63;;;31.30;77.90;;;;;;5037580;28;20399;-58
2023/06/11 12:15:54;;;;;;;7.90;5.00;;;31.40;75.10;;;;;;5037799;28;20036;-58
2023/06/11 12:18:20;;;;;;;8.80;5.18;;;31.50;75.00;;;;;;5038311;28;20039;-56
2023/06/11 12:20:46;;;;;;;6.88;5.20;;;31.80;72.80;;;;;;5039055;28;20410;-57
2023/06/11 12:23:12;;;;;;;10.10;5.30;;;31.90;74.00;;;;;;5040406;28;20053;-54
2023/06/11 12:25:39;;;;;;;8.02;4.90;;;32.20;73.30;;;;;;5039234;28;20377;-56
2023/06/11 12:28:05;;;;;;;8.23;5.75;;;32.30;72.80;;;;;;5044686;28;20029;-58
2023/06/11 12:30:32;;;;;;;10.15;5.38;;;31.50;69.90;;;;;;5040860;28;20032;-59
2023/06/11 12:32:58;;;;;;;7.25;4.90;;;31.20;72.30;;;;;;5039975;28;20466;-58
2023/06/11 12:35:24;;;;;;;6.05;4.57;;;30.40;72.00;;;;;;5047037;28;20066;-58
2023/06/11 12:37:50;;;;;;;6.18;4.82;;;30.50;69.80;;;;;;5046840;28;20024;-56